createdAt,value
2022-11-18T00:01:22.931Z,13.67
2022-11-18T00:03:51.289Z,15.02
2022-11-18T00:06:24.577Z,13.20
2022-11-18T00:08:52.717Z,14.27
2022-11-18T00:11:38.530Z,13.93
2022-11-18T00:14:21.391Z,11.53
2022-11-18T00:16:51.472Z,11.87
2022-11-18T00:19:19.438Z,13.83
2022-11-18T00:21:46.642Z,16.62
2022-11-18T00:24:14.196Z,14.95
2022-11-18T00:26:41.756Z,10.63
2022-11-18T00:29:12.112Z,9.30
2022-11-18T00:31:39.656Z,15.20
2022-11-18T00:34:07.248Z,10.80
2022-11-18T00:36:34.812Z,12.20
2022-11-18T00:39:02.357Z,21.03
2022-11-18T00:41:29.941Z,16.97
2022-11-18T00:43:58.302Z,14.73
2022-11-18T00:46:25.868Z,15.27
2022-11-18T00:48:53.443Z,11.17
2022-11-18T00:51:21.976Z,16.10
2022-11-18T00:53:49.525Z,13.43
2022-11-18T00:56:17.100Z,16.70
2022-11-18T00:58:44.733Z,12.13
2022-11-18T01:01:12.383Z,10.53
2022-11-18T01:03:39.910Z,12.10
2022-11-18T01:06:07.494Z,11.53
2022-11-18T01:08:35.050Z,12.87
2022-11-18T01:11:21.675Z,14.07
2022-11-18T01:13:51.889Z,12.63
2022-11-18T01:16:19.452Z,14.40
2022-11-18T01:18:47.065Z,9.17
2022-11-18T01:21:14.640Z,10.00
2022-11-18T01:23:42.992Z,11.50
2022-11-18T01:26:10.645Z,8.57
2022-11-18T01:28:38.918Z,17.08
2022-11-18T01:31:06.513Z,13.43
2022-11-18T01:33:34.105Z,10.07
2022-11-18T01:36:01.691Z,10.83
2022-11-18T01:38:29.244Z,8.33
2022-11-18T01:40:56.818Z,14.60
2022-11-18T01:43:24.393Z,13.40
2022-11-18T01:45:51.971Z,9.23
2022-11-18T01:48:28.241Z,11.80
2022-11-18T01:50:56.595Z,8.47
2022-11-18T01:53:24.188Z,12.83
2022-11-18T01:55:52.562Z,15.00
2022-11-18T01:58:26.484Z,11.30
2022-11-18T02:00:54.131Z,9.60
2022-11-18T02:03:21.711Z,9.43
2022-11-18T02:05:49.277Z,9.73
2022-11-18T02:08:16.907Z,7.27
2022-11-18T02:10:44.464Z,6.67
2022-11-18T02:13:12.804Z,5.20
2022-11-18T02:16:10.881Z,8.17
2022-11-18T02:18:59.429Z,9.80
2022-11-18T02:21:29.443Z,11.00
2022-11-18T02:24:18.081Z,5.80
2022-11-18T02:27:22.872Z,6.80
2022-11-18T02:29:50.426Z,5.73
2022-11-18T02:32:24.234Z,7.77
2022-11-18T02:34:52.901Z,5.00
2022-11-18T02:37:20.484Z,6.37
2022-11-18T02:39:54.674Z,7.97
2022-11-18T02:42:22.266Z,4.27
2022-11-18T02:44:49.817Z,7.78
2022-11-18T02:47:18.153Z,5.90
2022-11-18T02:49:45.758Z,5.80
2022-11-18T02:52:14.110Z,7.45
2022-11-18T02:54:41.692Z,5.27
2022-11-18T02:57:10.085Z,7.85
2022-11-18T02:59:37.659Z,7.53
2022-11-18T03:02:05.244Z,6.20
2022-11-18T03:04:32.810Z,7.47
2022-11-18T03:07:21.479Z,3.30
2022-11-18T03:09:50.029Z,4.23
2022-11-18T03:12:17.581Z,5.73
2022-11-18T03:15:09.477Z,9.73
2022-11-18T03:17:52.664Z,9.13
2022-11-18T03:20:23.006Z,6.17
2022-11-18T03:22:53.583Z,10.37
2022-11-18T03:25:24.338Z,10.90
2022-11-18T03:28:00.716Z,8.93
2022-11-18T03:30:28.260Z,8.33
2022-11-18T03:32:58.500Z,5.93
2022-11-18T03:35:26.143Z,5.47
2022-11-18T03:37:53.671Z,11.17
2022-11-18T03:40:21.224Z,10.27
2022-11-18T03:42:52.212Z,10.70
2022-11-18T03:45:22.420Z,9.20
2022-11-18T03:47:52.712Z,7.27
2022-11-18T03:50:21.101Z,8.90
2022-11-18T03:52:48.656Z,11.57
2022-11-18T03:55:16.231Z,6.30
2022-11-18T03:57:52.598Z,2.83
2022-11-18T04:00:20.144Z,4.17
2022-11-18T04:02:47.678Z,3.80
2022-11-18T04:05:16.055Z,8.00
2022-11-18T04:07:58.612Z,7.47
2022-11-18T04:10:47.528Z,15.23
2022-11-18T04:13:15.880Z,12.13
2022-11-18T04:15:43.426Z,10.60
2022-11-18T04:18:11.013Z,7.77
2022-11-18T04:20:38.556Z,11.70
2022-11-18T04:23:06.127Z,10.07
2022-11-18T04:25:33.742Z,9.32
2022-11-18T04:28:01.299Z,10.40
2022-11-18T04:30:28.821Z,10.63
2022-11-18T04:32:57.183Z,7.23
2022-11-18T04:35:24.720Z,7.77
2022-11-18T04:37:52.267Z,6.17
2022-11-18T04:40:19.885Z,5.97
2022-11-18T04:42:48.208Z,11.90
2022-11-18T04:45:15.771Z,7.13
2022-11-18T04:47:43.357Z,8.87
2022-11-18T04:50:10.922Z,14.10
2022-11-18T04:52:38.496Z,8.35
2022-11-18T04:55:06.903Z,9.57
2022-11-18T04:57:34.416Z,4.53
2022-11-18T05:00:01.989Z,7.37
2022-11-18T05:02:30.371Z,9.83
2022-11-18T05:04:58.683Z,5.90
2022-11-18T05:07:26.313Z,7.10
2022-11-18T05:09:53.872Z,4.30
2022-11-18T05:12:40.577Z,6.27
2022-11-18T05:15:08.975Z,4.20
2022-11-18T05:17:36.549Z,3.00
2022-11-18T05:20:04.174Z,3.27
2022-11-18T05:22:31.729Z,4.23
2022-11-18T05:24:59.313Z,4.43
2022-11-18T05:27:26.890Z,4.80
2022-11-18T05:29:54.460Z,8.75
2022-11-18T05:32:21.995Z,8.87
2022-11-18T05:34:49.529Z,4.37
2022-11-18T05:37:17.851Z,4.43
2022-11-18T05:39:45.406Z,3.23
2022-11-18T05:42:31.904Z,2.73
2022-11-18T05:44:59.429Z,4.13
2022-11-18T05:47:27.757Z,6.33
2022-11-18T05:49:55.310Z,8.20
2022-11-18T05:52:22.866Z,8.40
2022-11-18T05:54:50.407Z,5.57
2022-11-18T05:57:18.036Z,8.07
2022-11-18T05:59:46.375Z,8.33
2022-11-18T06:02:13.923Z,5.30
2022-11-18T06:04:47.227Z,5.10
2022-11-18T06:07:14.789Z,5.83
2022-11-18T06:09:42.342Z,6.82
2022-11-18T06:12:09.976Z,5.30
2022-11-18T06:14:37.503Z,4.77
2022-11-18T06:17:05.858Z,6.70
2022-11-18T06:19:33.442Z,5.65
2022-11-18T06:22:01.797Z,5.97
2022-11-18T06:24:29.370Z,5.23
2022-11-18T06:26:56.953Z,7.40
2022-11-18T06:29:27.753Z,5.10
2022-11-18T06:31:52.143Z,6.83
2022-11-18T06:34:19.884Z,6.80
2022-11-18T06:36:47.407Z,5.07
2022-11-18T06:39:15.135Z,4.67
2022-11-18T06:41:42.601Z,7.37
2022-11-18T06:44:13.765Z,5.17
2022-11-18T06:46:56.972Z,5.23
2022-11-18T06:49:25.277Z,7.23
2022-11-18T06:51:52.861Z,6.47
2022-11-18T06:54:20.479Z,6.70
2022-11-18T06:56:48.025Z,6.10
2022-11-18T06:59:16.562Z,6.33
2022-11-18T07:01:44.807Z,10.77
2022-11-18T07:04:12.341Z,6.77
2022-11-18T07:06:40.665Z,7.07
2022-11-18T07:09:08.270Z,8.40
2022-11-18T07:11:35.852Z,11.73
2022-11-18T07:14:04.195Z,8.07
2022-11-18T07:16:31.781Z,9.07
2022-11-18T07:19:00.130Z,9.73
2022-11-18T07:21:27.767Z,6.93
2022-11-18T07:23:55.357Z,6.65
2022-11-18T07:26:22.922Z,7.23
2022-11-18T07:28:50.511Z,5.90
2022-11-18T07:31:18.919Z,7.07
2022-11-18T07:33:46.466Z,6.83
2022-11-18T07:36:14.038Z,8.63
2022-11-18T07:38:41.663Z,5.57
2022-11-18T07:41:10.013Z,4.40
2022-11-18T07:43:37.573Z,4.73
2022-11-18T07:46:14.012Z,7.50
2022-11-18T07:48:41.557Z,6.78
2022-11-18T07:51:09.093Z,4.07
2022-11-18T07:53:36.718Z,8.47
2022-11-18T07:56:04.281Z,5.70
2022-11-18T07:58:31.837Z,6.72
2022-11-18T08:00:59.460Z,6.67
2022-11-18T08:03:29.681Z,8.90
2022-11-18T08:05:59.956Z,7.90
2022-11-18T08:08:29.201Z,8.53
2022-11-18T08:10:56.757Z,6.90
2022-11-18T08:13:24.311Z,4.80
2022-11-18T08:15:52.216Z,4.87
2022-11-18T08:18:19.772Z,6.07
2022-11-18T08:20:47.318Z,4.87
2022-11-18T08:23:15.276Z,6.97
2022-11-18T08:25:42.812Z,9.03
2022-11-18T08:28:10.406Z,3.33
2022-11-18T08:30:38.738Z,5.67
2022-11-18T08:33:06.301Z,6.00
2022-11-18T08:35:33.842Z,4.03
2022-11-18T08:38:02.205Z,6.78
2022-11-18T08:40:29.743Z,4.83
2022-11-18T08:42:57.274Z,6.07
2022-11-18T08:45:25.143Z,6.40
2022-11-18T08:47:52.685Z,3.83
2022-11-18T08:50:20.229Z,6.10
2022-11-18T08:52:48.603Z,5.30
2022-11-18T08:55:16.917Z,6.90
2022-11-18T08:57:44.471Z,5.23
2022-11-18T09:00:12.338Z,8.47
2022-11-18T09:02:39.885Z,5.53
2022-11-18T09:05:07.458Z,6.63
2022-11-18T09:07:35.165Z,6.57
2022-11-18T09:10:03.424Z,6.07
2022-11-18T09:12:30.974Z,7.83
2022-11-18T09:15:15.039Z,3.77
2022-11-18T09:17:26.942Z,3.33
2022-11-18T09:19:54.480Z,6.80
2022-11-18T09:22:22.060Z,5.87
2022-11-18T09:24:49.647Z,8.77
2022-11-18T09:27:18.166Z,8.20
2022-11-18T09:29:45.569Z,7.17
2022-11-18T09:32:13.891Z,4.87
2022-11-18T09:34:41.416Z,6.57
2022-11-18T09:37:09.019Z,4.07
2022-11-18T09:39:36.545Z,5.87
2022-11-18T09:42:22.377Z,3.27
2022-11-18T09:44:49.939Z,4.63
2022-11-18T09:47:23.157Z,4.80
2022-11-18T09:49:50.762Z,3.83
2022-11-18T09:52:36.203Z,5.50
2022-11-18T09:55:01.302Z,4.90
2022-11-18T09:57:37.442Z,5.30
2022-11-18T10:00:14.132Z,5.23
2022-11-18T10:02:59.772Z,5.07
2022-11-18T10:05:27.335Z,6.10
2022-11-18T10:08:00.631Z,5.77
2022-11-18T10:10:52.279Z,4.40
2022-11-18T10:13:25.525Z,2.37
2022-11-18T10:16:05.859Z,5.05
2022-11-18T10:21:03.821Z,4.73
2022-11-18T10:23:34.366Z,5.97
2022-11-18T10:26:02.678Z,6.10
2022-11-18T10:28:30.273Z,5.73
2022-11-18T10:31:09.542Z,5.77
2022-11-18T10:33:37.107Z,5.73
2022-11-18T10:36:29.090Z,4.50
2022-11-18T10:39:11.817Z,6.63
2022-11-18T10:41:39.440Z,5.90
2022-11-18T10:44:12.004Z,4.87
2022-11-18T10:46:34.568Z,1.87
2022-11-18T10:49:10.704Z,3.87
2022-11-18T10:51:44.449Z,1.37
2022-11-18T10:54:21.007Z,2.37
2022-11-18T10:56:57.602Z,4.20
2022-11-18T10:59:46.411Z,6.60
2022-11-18T11:02:31.972Z,3.70
2022-11-18T11:05:02.254Z,2.80
2022-11-18T11:07:35.334Z,3.57
2022-11-18T11:10:02.810Z,4.03
2022-11-18T11:12:30.382Z,3.37
2022-11-18T11:14:57.926Z,3.17
2022-11-18T11:17:28.239Z,4.30
2022-11-18T11:20:17.265Z,1.70
2022-11-18T11:22:44.743Z,2.60
2022-11-18T11:25:28.246Z,5.27
2022-11-18T11:30:25.550Z,2.70
2022-11-18T11:33:21.048Z,3.00
2022-11-18T11:36:00.875Z,5.40
2022-11-18T11:38:43.234Z,4.53
2022-11-18T11:41:38.730Z,2.63
2022-11-18T11:44:11.939Z,1.90
2022-11-18T11:46:54.250Z,22.77
2022-11-18T11:49:26.221Z,13.97
2022-11-18T11:52:02.639Z,4.00
2022-11-18T11:54:51.519Z,4.50
2022-11-18T11:57:37.033Z,1.83
2022-11-18T12:00:08.457Z,5.33
2022-11-18T12:02:45.103Z,12.40
2022-11-18T12:05:18.383Z,7.57
2022-11-18T12:07:55.074Z,6.80
2022-11-18T12:10:28.568Z,2.70
2022-11-18T12:13:14.948Z,4.13
2022-11-18T12:15:43.277Z,5.57
2022-11-18T12:18:29.205Z,3.37
2022-11-18T12:20:56.778Z,5.72
2022-11-18T12:23:27.147Z,6.07
2022-11-18T12:25:54.684Z,2.80
2022-11-18T12:28:27.740Z,4.97
2022-11-18T12:31:16.789Z,5.67
2022-11-18T12:33:50.832Z,3.77
2022-11-18T12:36:33.649Z,3.27
2022-11-18T12:39:26.399Z,3.97
2022-11-18T12:42:12.247Z,3.10
2022-11-18T12:44:40.599Z,3.03
2022-11-18T12:47:08.206Z,3.63
2022-11-18T12:49:36.503Z,4.00
2022-11-18T12:52:04.083Z,7.80
2022-11-18T12:54:34.539Z,4.30
2022-11-18T12:57:02.103Z,4.77
2022-11-18T12:59:29.699Z,8.80
2022-11-18T13:02:12.275Z,3.27
2022-11-18T13:04:45.773Z,1.67
2022-11-18T13:07:07.983Z,2.47
2022-11-18T13:09:36.230Z,2.43
2022-11-18T13:12:06.876Z,4.87
2022-11-18T13:14:55.425Z,3.33
2022-11-18T13:17:47.545Z,6.43
2022-11-18T13:20:32.868Z,4.10
2022-11-18T13:23:21.431Z,6.50
2022-11-18T13:25:48.986Z,8.27
2022-11-18T13:28:22.216Z,4.33
2022-11-18T13:30:49.758Z,3.53
2022-11-18T13:33:18.068Z,4.87
2022-11-18T13:35:45.593Z,2.00
2022-11-18T13:38:26.173Z,3.83
2022-11-18T13:41:05.434Z,4.47
2022-11-18T13:43:33.035Z,4.53
2022-11-18T13:46:06.270Z,4.47
2022-11-18T13:48:33.804Z,2.97
2022-11-18T13:51:02.156Z,2.00
2022-11-18T13:53:29.691Z,2.57
2022-11-18T13:56:02.774Z,0.97
2022-11-18T13:59:10.306Z,2.23
2022-11-18T14:01:07.662Z,1.77
2022-11-18T14:03:56.960Z,1.40
2022-11-18T14:06:24.494Z,3.07
2022-11-18T14:08:52.796Z,4.77
2022-11-18T14:11:38.773Z,1.50
2022-11-18T14:14:06.298Z,2.90
2022-11-18T14:16:33.843Z,2.30
2022-11-18T14:19:01.407Z,2.70
2022-11-18T14:21:28.956Z,5.05
2022-11-18T14:23:56.487Z,2.70
2022-11-18T14:26:26.692Z,4.70
2022-11-18T14:28:54.219Z,3.90
2022-11-18T14:31:27.449Z,3.07
2022-11-18T14:34:09.907Z,5.03
2022-11-18T14:36:40.716Z,5.83
2022-11-18T14:39:25.384Z,5.15
2022-11-18T14:41:47.238Z,5.73
2022-11-18T14:44:14.777Z,5.33
2022-11-18T14:46:42.314Z,4.57
2022-11-18T14:49:19.262Z,3.12
2022-11-18T14:51:46.511Z,1.90
2022-11-18T14:54:15.619Z,2.63
2022-11-18T14:56:42.369Z,6.93
2022-11-18T14:59:12.805Z,6.87
2022-11-18T15:01:40.417Z,3.93
2022-11-18T15:04:07.965Z,2.97
2022-11-18T15:06:35.528Z,3.47
2022-11-18T15:09:03.014Z,2.13
2022-11-18T15:11:31.373Z,5.77
2022-11-18T15:13:58.902Z,6.28
2022-11-18T15:16:26.448Z,5.27
2022-11-18T15:18:54.012Z,4.37
2022-11-18T15:21:21.565Z,4.17
2022-11-18T15:23:49.091Z,8.40
2022-11-18T15:26:26.011Z,3.47
2022-11-18T15:28:53.543Z,5.23
2022-11-18T15:31:21.099Z,7.10
2022-11-18T15:33:51.155Z,7.67
2022-11-18T15:36:18.658Z,2.77
2022-11-18T15:38:46.958Z,4.80
2022-11-18T15:41:17.212Z,3.37
2022-11-18T15:43:44.706Z,7.27
2022-11-18T15:46:13.010Z,6.87
2022-11-18T15:48:40.604Z,4.60
2022-11-18T15:51:11.866Z,2.83
2022-11-18T15:53:36.419Z,3.10
2022-11-18T15:56:19.827Z,6.10
2022-11-18T15:58:56.709Z,7.67
2022-11-18T16:01:21.673Z,3.10
2022-11-18T16:03:50.064Z,7.07
2022-11-18T16:06:18.375Z,7.30
2022-11-18T16:08:45.909Z,4.80
2022-11-18T16:11:31.442Z,6.33
2022-11-18T16:14:01.442Z,4.20
2022-11-18T16:16:28.980Z,8.27
2022-11-18T16:18:59.447Z,3.63
2022-11-18T16:21:26.979Z,4.63
2022-11-18T16:23:57.412Z,4.97
2022-11-18T16:26:24.968Z,7.20
2022-11-18T16:28:52.504Z,5.80
2022-11-18T16:31:38.214Z,7.97
2022-11-18T16:34:08.658Z,7.53
2022-11-18T16:36:38.977Z,7.17
2022-11-18T16:39:09.374Z,7.30
2022-11-18T16:41:36.922Z,5.10
2022-11-18T16:44:04.464Z,4.97
2022-11-18T16:46:32.812Z,4.43
2022-11-18T16:49:00.336Z,9.07
2022-11-18T16:51:30.538Z,8.60
2022-11-18T16:54:03.633Z,8.40
2022-11-18T16:56:31.172Z,5.60
2022-11-18T16:59:02.144Z,6.77
2022-11-18T17:01:30.917Z,5.13
2022-11-18T17:03:58.388Z,8.60
2022-11-18T17:06:25.915Z,7.37
2022-11-18T17:08:55.173Z,9.23
2022-11-18T17:11:22.715Z,8.13
2022-11-18T17:13:54.875Z,4.83
2022-11-18T17:16:17.801Z,6.57
2022-11-18T17:18:46.097Z,5.67
2022-11-18T17:21:13.626Z,5.33
2022-11-18T17:23:41.968Z,4.53
2022-11-18T17:26:09.503Z,3.63
2022-11-18T17:28:37.027Z,5.82
2022-11-18T17:31:13.364Z,4.67
2022-11-18T17:33:40.905Z,3.97
2022-11-18T17:36:08.460Z,3.80
2022-11-18T17:38:36.064Z,4.35
2022-11-18T17:41:04.367Z,5.50
2022-11-18T17:43:31.889Z,4.23
2022-11-18T17:46:03.048Z,5.23
2022-11-18T17:48:30.593Z,2.47
2022-11-18T17:51:04.708Z,5.10
2022-11-18T17:53:33.129Z,4.28
2022-11-18T17:56:03.949Z,8.27
2022-11-18T17:58:28.190Z,5.43
2022-11-18T18:00:55.828Z,7.27
2022-11-18T18:03:24.047Z,8.00
2022-11-18T18:05:52.348Z,8.67
2022-11-18T18:08:19.920Z,10.03
2022-11-18T18:10:47.430Z,8.23
2022-11-18T18:13:34.032Z,8.20
2022-11-18T18:16:02.337Z,5.70
2022-11-18T18:18:29.890Z,5.73
2022-11-18T18:20:57.465Z,8.73
2022-11-18T18:23:24.987Z,6.33
2022-11-18T18:25:53.278Z,8.67
2022-11-18T18:28:21.618Z,6.77
2022-11-18T18:30:49.148Z,11.43
2022-11-18T18:33:16.666Z,6.27
2022-11-18T18:35:45.017Z,7.43
2022-11-18T18:38:12.538Z,7.37
2022-11-18T18:40:40.064Z,8.52
2022-11-18T18:43:08.390Z,6.67
2022-11-18T18:45:53.884Z,11.03
2022-11-18T18:48:21.478Z,8.43
2022-11-18T18:50:49.775Z,7.80
2022-11-18T18:53:17.300Z,8.80
2022-11-18T18:55:46.860Z,10.30
2022-11-18T18:58:14.395Z,9.07
2022-11-18T19:00:41.928Z,8.30
2022-11-18T19:03:10.284Z,8.20
2022-11-18T19:06:12.280Z,7.40
2022-11-18T19:08:05.339Z,7.87
2022-11-18T19:10:33.540Z,6.03
2022-11-18T19:13:01.054Z,7.53
2022-11-18T19:15:29.392Z,8.37
2022-11-18T19:17:57.000Z,8.47
2022-11-18T19:20:39.495Z,8.30
2022-11-18T19:25:34.597Z,7.03
2022-11-18T19:28:02.119Z,7.53
2022-11-18T19:30:29.688Z,8.23
2022-11-18T19:32:57.230Z,13.10
2022-11-18T19:35:24.743Z,10.50
2022-11-18T19:37:53.474Z,9.27
2022-11-18T19:40:21.040Z,11.87
2022-11-18T19:42:48.584Z,6.07
2022-11-18T19:45:16.157Z,6.73
2022-11-18T19:47:43.684Z,10.87
2022-11-18T19:50:11.994Z,9.70
2022-11-18T19:52:40.148Z,7.47
2022-11-18T19:55:07.673Z,11.60
2022-11-18T19:57:35.216Z,11.33
2022-11-18T20:00:02.791Z,13.07
2022-11-18T20:02:30.319Z,10.67
2022-11-18T20:05:15.750Z,8.23
2022-11-18T20:07:44.052Z,11.23
2022-11-18T20:10:11.580Z,13.57
2022-11-18T20:12:40.520Z,13.43
2022-11-18T20:15:08.169Z,15.73
2022-11-18T20:17:35.699Z,12.93
2022-11-18T20:20:06.456Z,12.43
2022-11-18T20:22:34.112Z,10.47
2022-11-18T20:25:01.599Z,9.97
2022-11-18T20:27:29.167Z,10.73
2022-11-18T20:29:56.734Z,11.53
2022-11-18T20:32:24.252Z,10.70
2022-11-18T20:34:51.815Z,10.93
2022-11-18T20:37:19.349Z,11.03
2022-11-18T20:39:46.871Z,10.57
2022-11-18T20:42:32.272Z,11.60
2022-11-18T20:45:00.577Z,13.13
2022-11-18T20:47:28.110Z,9.97
2022-11-18T20:49:56.451Z,9.93
2022-11-18T20:52:23.980Z,14.47
2022-11-18T20:54:51.524Z,11.70
2022-11-18T20:57:19.114Z,9.03
2022-11-18T20:59:46.650Z,9.20
2022-11-18T21:02:14.187Z,16.93
2022-11-18T21:04:42.566Z,16.73
2022-11-18T21:07:10.123Z,9.23
2022-11-18T21:09:37.605Z,10.80
2022-11-18T21:12:05.789Z,10.27
2022-11-18T21:14:33.315Z,8.90
2022-11-18T21:17:01.616Z,10.10
2022-11-18T21:19:29.192Z,10.10
2022-11-18T21:21:56.736Z,8.73
2022-11-18T21:24:29.743Z,10.07
2022-11-18T21:26:57.310Z,13.67
2022-11-18T21:29:24.845Z,11.67
2022-11-18T21:31:52.389Z,9.27
2022-11-18T21:34:20.986Z,12.07
2022-11-18T21:36:53.152Z,12.70
2022-11-18T21:39:17.219Z,13.43
2022-11-18T21:41:44.363Z,9.13
2022-11-18T21:44:11.891Z,10.50
2022-11-18T21:46:39.427Z,10.80
2022-11-18T21:49:07.359Z,10.23
2022-11-18T21:51:34.896Z,13.25
2022-11-18T21:54:03.193Z,15.47
2022-11-18T21:56:31.157Z,10.60
2022-11-18T21:58:58.327Z,9.57
2022-11-18T22:01:25.857Z,12.43
2022-11-18T22:03:55.480Z,11.10
2022-11-18T22:06:20.969Z,9.50
2022-11-18T22:08:49.271Z,10.83
2022-11-18T22:11:16.848Z,12.40
2022-11-18T22:13:44.395Z,10.53
2022-11-18T22:16:11.938Z,14.13
2022-11-18T22:18:39.545Z,14.33
2022-11-18T22:21:09.463Z,13.87
2022-11-18T22:23:36.986Z,12.97
2022-11-18T22:26:04.636Z,10.40
2022-11-18T22:28:32.169Z,11.33
2022-11-18T22:31:06.266Z,8.87
2022-11-18T22:33:34.195Z,9.77
2022-11-18T22:36:07.802Z,12.90
2022-11-18T22:38:35.339Z,11.17
2022-11-18T22:41:05.398Z,8.87
2022-11-18T22:43:32.924Z,7.90
2022-11-18T22:46:00.454Z,10.63
2022-11-18T22:48:28.111Z,7.83
2022-11-18T22:50:56.412Z,9.60
2022-11-18T22:53:23.923Z,10.77
2022-11-18T22:55:51.488Z,8.37
2022-11-18T22:58:19.792Z,8.20
2022-11-18T23:00:47.320Z,10.77
2022-11-18T23:03:15.665Z,8.47
2022-11-18T23:05:43.185Z,7.63
2022-11-18T23:08:10.752Z,8.37
2022-11-18T23:10:38.419Z,9.90
2022-11-18T23:13:23.840Z,10.13
2022-11-18T23:15:51.432Z,9.67
2022-11-18T23:19:55.487Z,8.40
2022-11-18T23:22:23.071Z,11.83
2022-11-18T23:24:50.596Z,6.90
2022-11-18T23:27:18.130Z,10.45
2022-11-18T23:29:46.846Z,10.73
2022-11-18T23:32:14.380Z,6.40
2022-11-18T23:34:41.909Z,8.23
2022-11-18T23:37:09.616Z,10.63
2022-11-18T23:39:37.154Z,11.07
2022-11-18T23:42:05.484Z,12.63
2022-11-18T23:44:48.002Z,11.37
2022-11-18T23:47:15.529Z,14.07
2022-11-18T23:49:43.053Z,13.02
2022-11-18T23:52:11.396Z,11.70
2022-11-18T23:54:38.932Z,9.87
2022-11-18T23:57:06.476Z,12.50
2022-11-18T23:59:34.010Z,8.63
